Time;durP1;ratioP1;P1;durP2;ratioP2;P2;SDS_P1;SDS_P2;PMS_P1;PMS_P2;Temp;Humidity;BMP_temperature;BMP_pressure;BME280_temperature;BME280_humidity;BME280_pressure;Samples;Min_cycle;Max_cycle;Signal;HPM_P1;HPM_P2
2023/04/18 00:01:09;;;;;;;250.73;22.90;;;;;;;4.58;100.00;97430.91;10527178;28;20222;-66
2023/04/18 00:06:11;;;;;;;180.93;21.53;;;;;;;4.62;100.00;97428.91;10527779;28;20194;-67
2023/04/18 00:11:12;;;;;;;168.20;22.33;;;;;;;4.63;100.00;97439.19;10526932;28;20230;-65
2023/04/18 00:16:12;;;;;;;239.53;27.50;;;;;;;4.58;100.00;97436.09;10529081;28;20269;-66
2023/04/18 00:21:12;;;;;;;128.10;22.90;;;;;;;4.61;100.00;97435.88;10526837;28;20234;-65
2023/04/18 00:26:13;;;;;;;385.80;33.57;;;;;;;4.67;100.00;97441.59;10529047;28;20190;-65
2023/04/18 00:31:14;;;;;;;544.20;35.03;;;;;;;4.66;100.00;97443.38;10527620;28;20217;-65
2023/04/18 00:36:14;;;;;;;276.60;26.07;;;;;;;4.73;100.00;97446.38;10525621;28;20281;-67
2023/04/18 00:41:15;;;;;;;126.67;23.70;;;;;;;4.79;100.00;97440.78;10526130;28;20238;-65
2023/04/18 00:46:15;;;;;;;177.20;26.13;;;;;;;4.74;100.00;97441.06;10507850;28;20658;-65
2023/04/18 00:51:16;;;;;;;536.10;37.80;;;;;;;4.73;100.00;97441.19;10527325;28;20214;-66
2023/04/18 00:56:16;;;;;;;465.10;38.33;;;;;;;4.71;100.00;97443.06;10527129;28;20214;-66
2023/04/18 01:01:17;;;;;;;138.13;26.30;;;;;;;4.81;100.00;97442.34;10529097;28;20229;-66
2023/04/18 01:06:18;;;;;;;204.10;31.23;;;;;;;4.83;100.00;97443.06;10534127;28;20187;-66
2023/04/18 01:11:19;;;;;;;224.80;31.27;;;;;;;4.80;100.00;97443.25;10535081;28;20207;-66
2023/04/18 01:16:21;;;;;;;380.87;33.03;;;;;;;4.70;100.00;97450.03;10534282;28;20194;-66
2023/04/18 01:21:23;;;;;;;395.27;42.87;;;;;;;4.80;100.00;97458.03;10514336;28;20230;-65
2023/04/18 01:26:23;;;;;;;758.67;64.20;;;;;;;4.80;100.00;97456.25;10534136;28;20222;-65
2023/04/18 01:31:24;;;;;;;633.67;56.80;;;;;;;4.78;100.00;97452.94;10531149;28;20219;-66
2023/04/18 01:36:26;;;;;;;297.57;42.63;;;;;;;4.88;100.00;97452.31;10534734;28;20190;-65
2023/04/18 01:41:28;;;;;;;196.47;45.43;;;;;;;4.80;100.00;97451.06;10531962;28;20231;-68
2023/04/18 01:46:29;;;;;;;405.57;54.07;;;;;;;4.84;100.00;97456.88;10514612;28;20209;-67
2023/04/18 01:51:30;;;;;;;199.87;46.97;;;;;;;4.84;100.00;97454.28;10530366;28;20220;-66
2023/04/18 01:56:30;;;;;;;266.50;49.27;;;;;;;4.88;100.00;97454.91;10502845;28;20201;-66
2023/04/18 02:01:32;;;;;;;205.43;48.03;;;;;;;4.90;100.00;97453.03;10514704;28;20653;-67
2023/04/18 02:06:33;;;;;;;125.97;48.13;;;;;;;4.82;100.00;97453.53;10532844;28;20200;-66
2023/04/18 02:11:33;;;;;;;106.47;45.50;;;;;;;4.86;100.00;97456.78;10514126;28;20206;-66
2023/04/18 02:16:37;;;;;;;292.77;53.53;;;;;;;4.78;100.00;97460.72;10512696;28;20579;-64
2023/04/18 02:21:37;;;;;;;256.60;49.97;;;;;;;4.78;100.00;97467.69;10502430;28;20234;-65
2023/04/18 02:26:38;;;;;;;137.97;48.57;;;;;;;4.79;100.00;97467.59;10533022;28;20187;-65
2023/04/18 02:31:39;;;;;;;163.27;53.47;;;;;;;4.72;100.00;97473.28;10531315;28;20272;-66
2023/04/18 02:36:40;;;;;;;123.53;51.13;;;;;;;4.75;100.00;97473.91;10532507;28;20198;-65
2023/04/18 02:41:40;;;;;;;93.40;45.37;;;;;;;4.76;100.00;97475.56;10530718;28;20707;-64
2023/04/18 02:46:40;;;;;;;91.30;44.93;;;;;;;4.66;100.00;97474.50;10527791;28;20269;-66
2023/04/18 02:51:45;;;;;;;91.97;45.93;;;;;;;4.68;100.00;97461.44;10502115;28;20198;-65
2023/04/18 02:56:45;;;;;;;99.90;46.43;;;;;;;4.62;100.00;97465.25;10513343;28;20209;-66
2023/04/18 03:01:57;;;;;;;93.30;46.23;;;;;;;4.76;100.00;97456.56;10500494;28;20217;-65
2023/04/18 03:07:00;;;;;;;123.10;53.10;;;;;;;4.73;100.00;97455.00;10502959;28;20297;-65
2023/04/18 03:12:03;;;;;;;128.93;54.30;;;;;;;4.75;100.00;97460.91;10511638;28;20238;-65
2023/04/18 03:17:05;;;;;;;129.53;53.47;;;;;;;4.87;100.00;97461.88;10507668;28;20278;-66
2023/04/18 03:22:12;;;;;;;166.40;56.57;;;;;;;4.76;100.00;97461.75;10508991;28;20734;-66
2023/04/18 03:27:19;;;;;;;160.80;58.43;;;;;;;4.73;100.00;97459.34;10508633;28;20197;-66
2023/04/18 03:32:21;;;;;;;149.67;55.13;;;;;;;4.63;100.00;97454.75;10511278;28;20298;-65
2023/04/18 03:37:21;;;;;;;166.00;61.47;;;;;;;4.55;100.00;97454.44;10514729;28;20282;-65
2023/04/18 03:42:26;;;;;;;287.60;65.87;;;;;;;4.57;100.00;97455.16;10514279;28;20271;-70
2023/04/18 03:47:29;;;;;;;385.03;66.67;;;;;;;4.40;100.00;97468.41;10532846;28;20652;-66
2023/04/18 03:52:32;;;;;;;280.73;58.13;;;;;;;4.37;100.00;97464.25;10515065;28;20202;-64
2023/04/18 03:57:33;;;;;;;171.63;56.07;;;;;;;4.38;100.00;97462.47;10514491;28;20185;-65
2023/04/18 04:02:35;;;;;;;164.17;54.43;;;;;;;4.43;100.00;97473.41;10514052;28;20577;-65
2023/04/18 04:07:35;;;;;;;196.40;55.53;;;;;;;4.30;100.00;97468.16;10514325;28;20273;-64
2023/04/18 04:12:37;;;;;;;171.73;55.77;;;;;;;4.33;100.00;97467.97;10513856;28;20739;-65
2023/04/18 04:17:37;;;;;;;152.03;54.50;;;;;;;4.43;100.00;97476.00;10514489;28;20201;-65
2023/04/18 04:22:38;;;;;;;243.17;58.47;;;;;;;4.32;100.00;97475.84;10513615;28;20264;-64
2023/04/18 04:27:39;;;;;;;243.47;59.07;;;;;;;4.31;100.00;97477.63;10514282;28;20209;-64
2023/04/18 04:32:43;;;;;;;265.70;55.40;;;;;;;4.27;100.00;97482.19;10513746;28;20212;-65
2023/04/18 04:37:44;;;;;;;291.13;55.10;;;;;;;4.12;100.00;97490.94;10516800;28;20559;-65
2023/04/18 04:43:00;;;;;;;266.00;56.60;;;;;;;4.15;100.00;97501.13;10525288;28;20218;-65
2023/04/18 04:48:10;;;;;;;262.53;54.43;;;;;;;4.11;100.00;97500.47;10524500;28;20563;-65
2023/04/18 04:53:10;;;;;;;229.23;52.53;;;;;;;4.16;100.00;97509.72;10523337;28;20209;-64
2023/04/18 04:58:11;;;;;;;255.17;53.73;;;;;;;4.20;100.00;97511.19;10521951;28;20194;-65
2023/04/18 05:03:30;;;;;;;313.20;57.67;;;;;;;4.19;100.00;97504.34;10521712;28;20237;-64
2023/04/18 05:08:31;;;;;;;347.80;58.70;;;;;;;4.20;100.00;97514.63;10520799;28;20186;-66
2023/04/18 05:13:31;;;;;;;567.07;66.90;;;;;;;4.11;100.00;97512.59;10538416;28;20210;-65
2023/04/18 05:18:32;;;;;;;212.60;53.87;;;;;;;4.16;100.00;97517.50;10534251;28;20205;-65
2023/04/18 05:23:35;;;;;;;561.37;66.20;;;;;;;4.05;100.00;97523.34;10513920;28;20219;-66
2023/04/18 05:28:36;;;;;;;273.23;52.63;;;;;;;4.08;100.00;97523.97;10514311;28;20272;-64
2023/04/18 05:33:36;;;;;;;218.90;51.13;;;;;;;4.05;100.00;97528.53;10513743;28;20203;-65
2023/04/18 05:38:36;;;;;;;633.10;67.43;;;;;;;3.93;100.00;97525.75;10513434;28;20186;-65
2023/04/18 05:43:37;;;;;;;308.93;53.80;;;;;;;4.06;100.00;97535.41;10535466;28;20238;-66
2023/04/18 05:48:37;;;;;;;270.57;55.67;;;;;;;4.00;100.00;97541.78;10536853;28;20190;-65
2023/04/18 05:53:37;;;;;;;381.83;61.63;;;;;;;4.02;100.00;97546.88;10537145;28;20725;-66
2023/04/18 05:58:38;;;;;;;568.83;66.63;;;;;;;4.01;100.00;97546.06;10536677;28;20645;-65
2023/04/18 06:03:40;;;;;;;258.73;55.37;;;;;;;4.14;100.00;97550.47;10536310;28;20636;-65
2023/04/18 06:08:40;;;;;;;429.10;59.03;;;;;;;4.11;100.00;97554.91;10536636;28;20202;-65
2023/04/18 06:13:42;;;;;;;416.27;55.03;;;;;;;4.13;100.00;97560.00;10532724;28;20680;-64
2023/04/18 06:18:42;;;;;;;971.27;81.20;;;;;;;3.98;100.00;97556.63;10507431;28;20656;-64
2023/04/18 06:23:42;;;;;;;354.40;57.00;;;;;;;4.10;100.00;97566.22;10493543;28;20360;-65
2023/04/18 06:28:43;;;;;;;313.10;53.73;;;;;;;4.05;100.00;97570.03;10493939;28;20195;-65
2023/04/18 06:33:43;;;;;;;544.10;64.43;;;;;;;4.07;100.00;97570.75;10493342;28;20222;-65
2023/04/18 06:38:44;;;;;;;265.40;48.53;;;;;;;4.14;100.00;97581.59;10493225;28;20274;-65
2023/04/18 06:43:44;;;;;;;144.83;47.47;;;;;;;4.18;100.00;97589.09;10492668;28;20234;-65
2023/04/18 06:48:44;;;;;;;135.03;45.13;;;;;;;4.15;100.00;97578.91;10492786;28;20266;-64
2023/04/18 06:53:46;;;;;;;183.80;46.17;;;;;;;4.15;100.00;97585.84;10492376;28;20207;-64
2023/04/18 06:58:47;;;;;;;160.90;46.40;;;;;;;4.24;100.00;97583.53;10519977;28;20207;-65
2023/04/18 07:03:47;;;;;;;237.03;46.47;;;;;;;3.96;100.00;97593.91;10530569;28;20214;-65
2023/04/18 07:08:47;;;;;;;192.00;43.60;;;;;;;3.93;100.00;97587.97;10533091;28;20281;-63
2023/04/18 07:13:49;;;;;;;235.03;48.13;;;;;;;3.93;100.00;97585.38;10515727;28;20272;-65
2023/04/18 07:18:50;;;;;;;532.67;59.00;;;;;;;3.91;100.00;97581.25;10500389;28;20614;-64
2023/04/18 07:23:50;;;;;;;290.77;45.13;;;;;;;4.04;100.00;97587.34;10489974;28;20603;-64
2023/04/18 07:28:51;;;;;;;196.37;44.53;;;;;;;3.98;100.00;97592.91;10490376;28;20187;-65
2023/04/18 07:33:51;;;;;;;252.23;44.83;;;;;;;4.10;100.00;97594.75;10501787;28;20226;-65
2023/04/18 07:38:51;;;;;;;290.17;48.77;;;;;;;4.07;100.00;97583.72;10534015;28;20220;-64
2023/04/18 07:43:52;;;;;;;155.57;45.87;;;;;;;4.19;100.00;97582.13;10531060;28;20226;-65
2023/04/18 07:48:52;;;;;;;155.20;43.40;;;;;;;4.23;100.00;97589.63;10531165;28;20197;-66
2023/04/18 07:53:53;;;;;;;342.93;67.90;;;;;;;4.20;100.00;97576.84;10531349;28;20301;-64
2023/04/18 07:58:53;;;;;;;200.70;44.87;;;;;;;4.18;100.00;97591.69;10530579;28;20198;-65
2023/04/18 08:03:55;;;;;;;223.90;48.37;;;;;;;4.20;100.00;97596.78;10512627;28;20237;-65
2023/04/18 08:08:57;;;;;;;223.30;39.20;;;;;;;4.36;100.00;97597.47;10529834;28;20281;-65
2023/04/18 08:13:58;;;;;;;292.37;38.13;;;;;;;4.37;100.00;97593.97;10537798;28;20225;-65
2023/04/18 08:18:58;;;;;;;299.03;47.77;;;;;;;4.22;100.00;97580.16;10539755;28;20293;-64
2023/04/18 08:23:58;;;;;;;233.73;38.90;;;;;;;4.29;100.00;97580.66;10539082;28;20593;-67
2023/04/18 08:28:59;;;;;;;129.43;54.93;;;;;;;4.40;100.00;97579.97;10524752;28;20636;-65
2023/04/18 08:34:00;;;;;;;96.47;35.30;;;;;;;4.63;100.00;97563.75;10523741;28;20588;-65
2023/04/18 08:39:03;;;;;;;165.13;49.57;;;;;;;4.57;100.00;97566.75;10519464;28;20186;-65
2023/04/18 08:44:05;;;;;;;122.47;39.10;;;;;;;4.43;100.00;97559.03;10515038;28;20234;-65
2023/04/18 08:49:06;;;;;;;134.33;45.40;;;;;;;4.60;100.00;97556.16;10520577;28;20211;-66
2023/04/18 08:54:06;;;;;;;207.37;36.57;;;;;;;4.57;100.00;97553.78;10533862;28;20309;-66
2023/04/18 08:59:08;;;;;;;88.10;37.97;;;;;;;4.73;100.00;97561.44;10536220;28;20535;-66
2023/04/18 09:04:08;;;;;;;86.33;34.37;;;;;;;4.61;100.00;97547.47;10537275;28;20219;-65
2023/04/18 09:09:09;;;;;;;71.73;35.33;;;;;;;4.83;100.00;97548.66;10535388;28;20197;-66
2023/04/18 09:14:22;;;;;;;82.00;34.73;;;;;;;4.88;100.00;97546.59;10537178;28;20211;-66
2023/04/18 09:19:23;;;;;;;105.23;33.07;;;;;;;5.13;100.00;97530.25;10537146;28;20190;-65
2023/04/18 09:24:25;;;;;;;92.10;33.57;;;;;;;4.86;100.00;97514.72;10536104;28;20214;-65
2023/04/18 09:29:45;;;;;;;196.87;33.43;;;;;;;4.76;100.00;97506.72;10536265;28;20245;-65
2023/04/18 09:34:46;;;;;;;237.03;34.90;;;;;;;4.81;100.00;97509.00;10536384;28;20221;-65
2023/04/18 09:39:46;;;;;;;81.20;32.70;;;;;;;4.96;100.00;97509.75;10535889;28;21228;-65
2023/04/18 09:45:06;;;;;;;140.07;36.37;;;;;;;4.78;100.00;97510.03;10534247;28;20206;-65
2023/04/18 09:50:10;;;;;;;187.07;36.20;;;;;;;4.69;100.00;97507.22;10534832;28;20206;-66
2023/04/18 09:55:15;;;;;;;153.37;37.33;;;;;;;4.81;100.00;97503.81;10535241;28;20238;-65
2023/04/18 10:00:23;;;;;;;67.70;38.83;;;;;;;4.73;100.00;97500.88;10510041;28;20217;-65
2023/04/18 10:05:26;;;;;;;72.60;34.93;;;;;;;4.62;100.00;97499.84;10511360;28;20203;-65
2023/04/18 10:10:27;;;;;;;73.17;37.80;;;;;;;4.72;100.00;97505.25;10510664;28;20233;-67
2023/04/18 10:15:28;;;;;;;73.17;37.60;;;;;;;4.75;100.00;97506.81;10439543;22;20255;-65
2023/04/18 10:20:30;;;;;;;71.00;38.10;;;;;;;4.90;100.00;97503.22;10408947;28;20220;-67
2023/04/18 10:25:33;;;;;;;71.60;34.63;;;;;;;4.95;100.00;97502.91;10409916;28;20208;-66
2023/04/18 10:30:39;;;;;;;68.77;35.93;;;;;;;4.88;100.00;97509.44;10409860;28;20311;-67
2023/04/18 10:36:05;;;;;;;59.90;30.97;;;;;;;4.99;100.00;97494.81;10408791;28;20224;-67
2023/04/18 10:41:22;;;;;;;60.27;29.37;;;;;;;5.14;100.00;97495.53;10407934;28;20231;-67
2023/04/18 10:46:22;;;;;;;57.60;29.70;;;;;;;4.92;100.00;97487.53;10421122;28;20207;-67
2023/04/18 10:51:22;;;;;;;55.43;29.73;;;;;;;4.81;100.00;97483.88;10445414;28;20647;-66
2023/04/18 10:56:24;;;;;;;56.40;29.90;;;;;;;4.92;100.00;97483.16;10445415;28;20555;-66
2023/04/18 11:01:35;;;;;;;62.17;29.77;;;;;;;4.97;100.00;97486.28;10516306;27;20605;-64
2023/04/18 11:06:46;;;;;;;57.33;31.00;;;;;;;5.04;100.00;97491.06;10479223;28;20271;-66
2023/04/18 11:12:02;;;;;;;58.27;28.50;;;;;;;4.85;100.00;97491.47;10478216;28;20228;-66
2023/04/18 11:17:15;;;;;;;60.20;31.33;;;;;;;4.88;100.00;97489.47;10488421;28;20210;-66
2023/04/18 11:22:16;;;;;;;66.47;32.00;;;;;;;4.83;100.00;97488.97;10495112;28;20211;-66
2023/04/18 11:27:16;;;;;;;65.47;32.33;;;;;;;4.87;100.00;97498.22;10485398;28;20657;-66
2023/04/18 11:32:17;;;;;;;66.37;32.97;;;;;;;4.92;100.00;97490.94;10480254;28;20206;-66
2023/04/18 11:37:17;;;;;;;61.10;31.57;;;;;;;5.07;100.00;97496.91;10482634;28;20211;-67
2023/04/18 11:42:18;;;;;;;66.50;32.90;;;;;;;5.17;100.00;97497.09;10482233;28;20215;-66
2023/04/18 11:47:29;;;;;;;75.70;34.47;;;;;;;5.01;100.00;97494.72;10482424;28;20191;-66
2023/04/18 11:52:31;;;;;;;65.30;34.67;;;;;;;4.99;100.00;97502.59;10481376;28;20235;-66
2023/04/18 11:57:31;;;;;;;64.47;32.77;;;;;;;5.10;100.00;97504.47;10480994;28;20352;-67
2023/04/18 12:02:43;;;;;;;61.90;31.83;;;;;;;5.10;100.00;97504.47;10481582;28;20348;-66
2023/04/18 12:07:44;;;;;;;53.77;29.83;;;;;;;5.20;100.00;97499.50;10481380;28;20188;-67
2023/04/18 12:12:58;;;;;;;54.27;28.63;;;;;;;5.10;100.00;97503.63;10454581;28;20223;-66
2023/04/18 12:18:00;;;;;;;50.23;29.20;;;;;;;5.25;100.00;97494.81;10453175;28;20224;-66
2023/04/18 12:23:01;;;;;;;47.10;26.40;;;;;;;5.14;100.00;97494.72;10452216;28;20211;-66
2023/04/18 12:28:11;;;;;;;52.50;27.73;;;;;;;5.08;100.00;97487.31;10452367;28;20188;-67
2023/04/18 12:33:11;;;;;;;54.20;29.07;;;;;;;5.13;100.00;97493.88;10442909;28;20217;-66
2023/04/18 12:38:12;;;;;;;55.33;27.60;;;;;;;5.14;100.00;97492.94;10425285;28;20212;-66
2023/04/18 12:43:12;;;;;;;51.93;27.90;;;;;;;5.21;100.00;97495.97;10427228;28;20327;-65
2023/04/18 12:48:12;;;;;;;53.40;28.20;;;;;;;5.16;100.00;97498.03;10445237;28;20192;-65
2023/04/18 12:53:13;;;;;;;58.20;30.33;;;;;;;5.09;100.00;97496.78;10451483;28;20233;-65
2023/04/18 12:58:17;;;;;;;58.93;29.70;;;;;;;5.27;100.00;97495.56;10452071;28;20235;-65
2023/04/18 13:03:17;;;;;;;57.17;29.80;;;;;;;5.38;100.00;97499.19;10452093;28;20216;-66
2023/04/18 13:08:18;;;;;;;58.47;30.90;;;;;;;5.22;100.00;97505.41;10452135;28;20298;-66
2023/04/18 13:13:18;;;;;;;59.50;32.67;;;;;;;5.27;100.00;97505.13;10450824;28;20274;-66
2023/04/18 13:18:18;;;;;;;61.83;32.63;;;;;;;5.25;100.00;97502.59;10451329;28;20306;-66
2023/04/18 13:23:19;;;;;;;58.83;33.67;;;;;;;5.32;100.00;97514.25;10448163;28;20211;-66
2023/04/18 13:28:19;;;;;;;61.60;33.53;;;;;;;5.53;100.00;97517.16;10447500;28;20177;-66
2023/04/18 13:33:19;;;;;;;60.30;33.33;;;;;;;5.43;100.00;97523.09;10447822;28;20294;-66
2023/04/18 13:38:20;;;;;;;60.20;33.37;;;;;;;5.48;100.00;97516.66;10448691;28;20226;-65
2023/04/18 13:43:20;;;;;;;65.40;35.63;;;;;;;5.36;100.00;97526.09;10450151;28;20299;-66
2023/04/18 13:48:21;;;;;;;67.47;35.57;;;;;;;5.43;100.00;97518.72;10448427;28;20691;-65
2023/04/18 13:53:21;;;;;;;60.70;33.80;;;;;;;5.29;100.00;97524.84;10448308;28;20981;-65
2023/04/18 13:58:21;;;;;;;65.50;31.73;;;;;;;5.37;100.00;97534.72;10448408;28;20736;-66
2023/04/18 14:03:22;;;;;;;70.17;33.37;;;;;;;5.41;100.00;97535.38;10449815;28;20731;-66
2023/04/18 14:08:22;;;;;;;68.23;32.93;;;;;;;5.39;100.00;97535.47;10449510;28;20629;-66
2023/04/18 14:13:22;;;;;;;74.97;34.37;;;;;;;5.42;100.00;97537.00;10448747;28;20698;-65
2023/04/18 14:18:23;;;;;;;65.40;32.87;;;;;;;5.41;100.00;97537.97;10447522;28;20696;-65
2023/04/18 14:23:24;;;;;;;63.10;32.90;;;;;;;5.49;100.00;97543.47;10447892;28;20206;-66
2023/04/18 14:28:25;;;;;;;69.23;32.70;;;;;;;5.36;100.00;97546.06;10448690;28;20583;-66
2023/04/18 14:33:25;;;;;;;69.43;33.97;;;;;;;5.38;100.00;97544.19;10447057;28;20294;-65
2023/04/18 14:38:25;;;;;;;67.50;32.67;;;;;;;5.56;100.00;97547.31;10449029;28;20227;-65
2023/04/18 14:43:26;;;;;;;73.80;35.33;;;;;;;5.56;100.00;97543.88;10448014;28;20212;-65
2023/04/18 14:48:27;;;;;;;81.27;35.77;;;;;;;5.61;100.00;97541.81;10448386;28;20203;-66
2023/04/18 14:53:27;;;;;;;73.80;31.90;;;;;;;5.78;100.00;97538.03;10445421;28;20765;-65
2023/04/18 14:58:27;;;;;;;67.03;33.23;;;;;;;5.57;100.00;97537.75;10414260;28;20709;-65
2023/04/18 15:03:28;;;;;;;62.33;33.60;;;;;;;5.63;100.00;97543.34;10432158;28;20208;-65
2023/04/18 15:08:29;;;;;;;68.73;33.63;;;;;;;5.71;100.00;97545.41;10424179;28;20199;-65
2023/04/18 15:13:30;;;;;;;74.77;34.50;;;;;;;5.61;100.00;97545.22;10423649;28;20239;-65
2023/04/18 15:18:30;;;;;;;67.43;33.30;;;;;;;5.72;100.00;97552.28;10427774;28;20224;-65
2023/04/18 15:23:30;;;;;;;62.20;32.13;;;;;;;5.74;100.00;97557.38;10424482;28;20295;-65
2023/04/18 15:28:31;;;;;;;58.33;31.57;;;;;;;5.88;100.00;97555.50;10425245;28;20669;-65
2023/04/18 15:33:31;;;;;;;65.07;32.87;;;;;;;5.76;100.00;97553.75;10446375;28;20215;-64
2023/04/18 15:38:32;;;;;;;63.60;32.40;;;;;;;5.90;100.00;97550.19;10445484;28;20318;-66
2023/04/18 15:43:32;;;;;;;61.47;32.87;;;;;;;5.97;100.00;97543.66;10449762;28;20220;-64
2023/04/18 15:48:33;;;;;;;61.73;31.80;;;;;;;6.00;100.00;97540.84;10457610;28;20192;-63
2023/04/18 15:53:33;;;;;;;64.90;35.10;;;;;;;6.04;100.00;97554.47;10457041;28;20222;-65
2023/04/18 15:58:34;;;;;;;55.47;29.20;;;;;;;6.06;100.00;97553.44;10457272;28;20223;-65
2023/04/18 16:03:34;;;;;;;56.47;29.57;;;;;;;6.02;100.00;97549.38;10455832;28;20208;-65
2023/04/18 16:08:36;;;;;;;49.97;27.27;;;;;;;5.85;100.00;97547.91;10457528;28;20271;-64
2023/04/18 16:13:36;;;;;;;51.13;28.97;;;;;;;5.94;100.00;97550.81;10449332;22;20236;-66
2023/04/18 16:18:38;;;;;;;51.07;30.80;;;;;;;5.94;100.00;97546.44;10407423;28;20242;-65
2023/04/18 16:23:38;;;;;;;59.17;30.10;;;;;;;5.89;100.00;97546.75;10412615;28;20201;-66
2023/04/18 16:28:38;;;;;;;52.57;29.57;;;;;;;5.96;100.00;97547.16;10414491;28;20215;-66
2023/04/18 16:33:38;;;;;;;59.43;30.00;;;;;;;5.82;100.00;97549.88;10416530;28;20213;-65
2023/04/18 16:38:39;;;;;;;63.60;32.97;;;;;;;5.86;100.00;97548.72;10403653;28;20208;-65
2023/04/18 16:43:39;;;;;;;72.83;35.50;;;;;;;5.88;100.00;97547.69;10415418;28;20289;-64
2023/04/18 16:48:40;;;;;;;100.23;38.20;;;;;;;5.83;100.00;97562.75;10415399;28;20189;-64
2023/04/18 16:53:40;;;;;;;89.83;37.97;;;;;;;5.84;100.00;97567.03;10401087;28;20219;-62
2023/04/18 16:58:41;;;;;;;143.93;43.07;;;;;;;5.83;100.00;97580.16;10374073;28;20225;-64
2023/04/18 17:03:41;;;;;;;185.90;96.47;;;;;;;5.90;100.00;97589.19;10375867;28;20279;-64
2023/04/18 17:08:41;;;;;;;111.57;47.60;;;;;;;5.92;100.00;97587.31;10373809;28;20268;-65
2023/04/18 17:13:42;;;;;;;109.10;47.37;;;;;;;5.97;100.00;97587.88;10373207;28;20307;-65
2023/04/18 17:18:42;;;;;;;129.57;51.47;;;;;;;5.95;100.00;97592.31;10373190;28;20228;-65
2023/04/18 17:23:43;;;;;;;127.77;60.93;;;;;;;5.93;100.00;97594.19;10373039;28;20352;-64
2023/04/18 17:28:43;;;;;;;130.03;51.13;;;;;;;6.07;100.00;97601.88;10372787;28;20272;-64
2023/04/18 17:33:43;;;;;;;108.90;51.40;;;;;;;6.05;100.00;97601.19;10372796;28;20221;-65
2023/04/18 17:38:47;;;;;;;123.43;51.73;;;;;;;5.99;100.00;97605.97;10372509;28;20217;-64
2023/04/18 17:43:52;;;;;;;116.87;54.23;;;;;;;6.00;100.00;97607.63;10396450;28;20827;-64
2023/04/18 17:48:52;;;;;;;121.87;56.27;;;;;;;5.94;100.00;97605.41;10412737;28;20197;-64
2023/04/18 17:53:52;;;;;;;108.50;51.67;;;;;;;5.99;100.00;97613.78;10415396;28;20240;-63
2023/04/18 17:58:53;;;;;;;102.17;49.13;;;;;;;6.02;100.00;97616.16;10413986;28;20261;-64
2023/04/18 18:03:53;;;;;;;105.20;48.83;;;;;;;6.01;100.00;97615.31;10412959;28;20208;-64
2023/04/18 18:08:54;;;;;;;132.57;63.97;;;;;;;6.02;100.00;97617.00;10412122;28;20271;-65
2023/04/18 18:13:56;;;;;;;112.53;55.10;;;;;;;6.07;100.00;97624.47;10411656;28;20240;-64
2023/04/18 18:18:57;;;;;;;105.63;51.47;;;;;;;6.10;100.00;97628.66;10411991;28;20268;-65
2023/04/18 18:23:57;;;;;;;97.83;47.73;;;;;;;6.07;100.00;97630.50;10386185;28;20223;-64
2023/04/18 18:28:57;;;;;;;96.13;49.63;;;;;;;6.14;100.00;97630.06;10367706;28;20185;-65
2023/04/18 18:33:58;;;;;;;92.07;46.57;;;;;;;6.13;100.00;97631.03;10367335;28;20905;-66
2023/04/18 18:38:58;;;;;;;102.27;50.50;;;;;;;6.11;100.00;97641.53;10367464;28;20721;-66
2023/04/18 18:43:59;;;;;;;95.13;45.50;;;;;;;6.14;100.00;97635.28;10367062;28;20732;-65
2023/04/18 18:48:59;;;;;;;88.23;46.13;;;;;;;6.20;100.00;97634.84;10367065;28;20558;-65
2023/04/18 18:53:59;;;;;;;85.83;44.27;;;;;;;6.16;100.00;97634.25;10366969;28;20552;-64
2023/04/18 18:59:00;;;;;;;83.23;43.87;;;;;;;6.17;100.00;97637.66;10366546;28;20676;-65
2023/04/18 19:04:01;;;;;;;96.57;47.17;;;;;;;6.20;100.00;97637.47;10366946;28;20220;-65
2023/04/18 19:09:01;;;;;;;83.83;44.23;;;;;;;6.18;100.00;97644.53;10366616;28;20200;-65
2023/04/18 19:14:02;;;;;;;92.23;46.90;;;;;;;6.23;100.00;97643.31;10366301;28;20311;-66
2023/04/18 19:19:02;;;;;;;96.37;44.30;;;;;;;6.16;100.00;97643.84;10384627;28;20212;-65
2023/04/18 19:24:03;;;;;;;90.10;46.10;;;;;;;6.19;100.00;97638.41;10392434;28;20220;-64
2023/04/18 19:29:05;;;;;;;101.53;45.13;;;;;;;6.19;100.00;97633.22;10390131;28;20247;-66
2023/04/18 19:34:05;;;;;;;86.67;43.40;;;;;;;6.27;100.00;97635.28;10392724;28;20220;-66
2023/04/18 19:39:06;;;;;;;97.57;44.93;;;;;;;6.24;100.00;97638.91;10408482;28;20224;-66
2023/04/18 19:44:07;;;;;;;85.63;44.80;;;;;;;6.36;100.00;97632.84;10414680;28;20270;-66
2023/04/18 19:49:07;;;;;;;91.50;44.27;;;;;;;6.27;100.00;97635.28;10413012;28;20250;-66
2023/04/18 19:54:08;;;;;;;96.90;45.53;;;;;;;6.22;100.00;97633.81;10414848;28;20207;-66
2023/04/18 19:59:08;;;;;;;96.40;43.67;;;;;;;6.22;100.00;97627.81;10413872;28;20226;-64
2023/04/18 20:04:09;;;;;;;107.17;44.70;;;;;;;6.24;100.00;97625.91;10413905;28;20758;-64
2023/04/18 20:09:13;;;;;;;93.53;44.63;;;;;;;6.23;100.00;97632.03;10413713;28;20176;-63
2023/04/18 20:14:14;;;;;;;89.73;45.80;;;;;;;6.42;100.00;97621.19;10413101;28;20251;-66
2023/04/18 20:19:14;;;;;;;82.53;41.77;;;;;;;6.32;100.00;97615.78;10413338;28;21005;-64
2023/04/18 20:24:15;;;;;;;98.07;45.17;;;;;;;6.25;100.00;97606.78;10412686;28;20212;-64
2023/04/18 20:29:15;;;;;;;83.90;44.20;;;;;;;6.39;100.00;97614.44;10413141;28;20185;-65
2023/04/18 20:34:15;;;;;;;81.30;43.40;;;;;;;6.50;100.00;97616.28;10412718;28;20221;-65
2023/04/18 20:39:16;;;;;;;84.27;43.13;;;;;;;6.28;100.00;97609.16;10413129;28;20224;-63
2023/04/18 20:44:19;;;;;;;81.30;41.10;;;;;;;6.28;100.00;97597.91;10413021;28;20867;-65
2023/04/18 20:49:20;;;;;;;90.20;43.13;;;;;;;6.45;100.00;97605.38;10412794;28;20658;-64
2023/04/18 20:54:20;;;;;;;74.37;40.17;;;;;;;6.45;100.00;97601.91;10413217;28;20216;-65
2023/04/18 20:59:20;;;;;;;71.90;40.20;;;;;;;6.42;100.00;97597.78;10412016;28;20209;-65
2023/04/18 21:04:21;;;;;;;83.20;39.87;;;;;;;6.33;100.00;97594.03;10412075;28;20208;-64
2023/04/18 21:09:21;;;;;;;69.60;36.73;;;;;;;6.35;100.00;97592.16;10412417;28;20204;-65
2023/04/18 21:14:22;;;;;;;85.63;40.97;;;;;;;6.37;100.00;97592.91;10411496;28;20323;-65
2023/04/18 21:19:22;;;;;;;70.20;37.87;;;;;;;6.35;100.00;97586.94;10411874;28;20310;-66
2023/04/18 21:24:23;;;;;;;83.77;40.57;;;;;;;6.40;100.00;97587.47;10412748;28;20227;-65
2023/04/18 21:29:23;;;;;;;81.97;40.57;;;;;;;6.36;100.00;97583.41;10415287;28;20230;-65
2023/04/18 21:34:24;;;;;;;69.90;37.77;;;;;;;6.37;100.00;97579.03;10418186;28;20754;-66
2023/04/18 21:39:26;;;;;;;69.93;38.33;;;;;;;6.42;100.00;97580.38;10411353;28;20218;-66
2023/04/18 21:44:26;;;;;;;74.73;39.03;;;;;;;6.45;100.00;97578.47;10409447;28;20593;-63
2023/04/18 21:49:27;;;;;;;86.63;41.90;;;;;;;6.45;100.00;97571.53;10410324;28;20184;-65
2023/04/18 21:54:27;;;;;;;73.97;39.13;;;;;;;6.58;100.00;97561.06;10410218;28;20227;-66
2023/04/18 21:59:28;;;;;;;70.73;39.07;;;;;;;6.76;100.00;97548.47;10409862;28;20307;-66
2023/04/18 22:04:28;;;;;;;72.13;37.70;;;;;;;6.65;100.00;97525.00;10409721;28;20213;-64
2023/04/18 22:09:30;;;;;;;66.00;36.90;;;;;;;6.67;100.00;97515.31;10409406;28;20202;-65
2023/04/18 22:14:31;;;;;;;68.93;36.57;;;;;;;6.35;100.00;97493.25;10390132;23;20237;-64
2023/04/18 22:19:31;;;;;;;79.60;41.27;;;;;;;6.29;100.00;97485.06;10329940;28;20628;-66
2023/04/18 22:24:31;;;;;;;79.17;41.27;;;;;;;6.28;100.00;97489.47;10330777;28;20746;-65
2023/04/18 22:29:32;;;;;;;74.53;39.23;;;;;;;6.36;100.00;97484.53;10330886;28;20600;-66
2023/04/18 22:34:32;;;;;;;79.10;38.93;;;;;;;6.39;100.00;97492.09;10330521;28;20588;-66
2023/04/18 22:39:33;;;;;;;74.73;39.80;;;;;;;6.54;100.00;97495.38;10330273;28;20758;-66